Time;durP1;ratioP1;P1;durP2;ratioP2;P2;SDS_P1;SDS_P2;PMS_P1;PMS_P2;Temp;Humidity;BMP_temperature;BMP_pressure;BME280_temperature;BME280_humidity;BME280_pressure;Samples;Min_cycle;Max_cycle;Signal;HPM_P1;HPM_P2
2022/11/17 00:01:45;;;;;;;6.08;5.12;;;;;;;3.49;80.77;100208.84;1811682;77;21040;-82
2022/11/17 00:04:30;;;;;;;5.62;5.12;;;;;;;3.51;80.75;100207.58;1811336;77;21111;-81
2022/11/17 00:07:15;;;;;;;5.78;5.20;;;;;;;3.49;80.66;100196.49;1813614;77;21079;-82
2022/11/17 00:10:00;;;;;;;8.35;5.65;;;;;;;3.48;80.70;100205.86;1812560;77;21041;-82
2022/11/17 00:15:48;;;;;;;6.90;5.40;;;;;;;3.49;80.73;100193.52;1809644;78;21710;-81
2022/11/17 00:21:36;;;;;;;6.58;5.45;;;;;;;3.52;80.69;100192.67;1813237;77;21060;-81
2022/11/17 00:24:22;;;;;;;5.95;5.35;;;;;;;3.51;80.68;100180.31;1809876;77;21009;-81
2022/11/17 00:27:07;;;;;;;;;;;;;;;3.52;80.68;100180.75;1813244;78;21053;-81
2022/11/17 00:29:52;;;;;;;7.67;6.42;;;;;;;3.54;80.64;100174.37;1811940;78;20117;-81
2022/11/17 00:35:40;;;;;;;8.65;5.45;;;;;;;3.55;80.62;100176.08;1811578;77;21522;-81
2022/11/17 00:38:26;;;;;;;6.55;5.70;;;;;;;3.54;80.69;100177.78;1811404;77;21566;-81
2022/11/17 00:41:10;;;;;;;6.25;5.70;;;;;;;3.57;80.70;100173.11;1811845;78;21445;-81
2022/11/17 00:43:55;;;;;;;6.78;5.37;;;;;;;3.56;80.60;100170.12;1807810;78;21547;-80
2022/11/17 00:46:41;;;;;;;7.37;5.30;;;;;;;3.58;80.67;100173.54;1803757;77;22048;-81
2022/11/17 00:49:26;;;;;;;6.50;5.90;;;;;;;3.59;80.65;100168.86;1789484;77;21020;-81
2022/11/17 00:52:11;;;;;;;5.97;5.28;;;;;;;3.59;80.61;100168.44;1810439;77;21001;-81
2022/11/17 00:54:56;;;;;;;7.05;5.35;;;;;;;3.58;80.61;100169.28;1810963;78;21091;-81
2022/11/17 00:57:41;;;;;;;6.95;5.45;;;;;;;3.58;80.56;100175.67;1807262;78;21390;-81
2022/11/17 01:00:26;;;;;;;6.35;5.75;;;;;;;3.57;80.55;100176.52;1812962;76;21434;-82
2022/11/17 01:03:10;;;;;;;6.80;6.10;;;;;;;3.56;80.46;100168.42;1812117;77;21508;-81
2022/11/17 01:06:12;;;;;;;7.30;5.78;;;;;;;3.53;80.52;100173.52;1806166;77;21540;-81
2022/11/17 01:09:03;;;;;;;6.70;5.97;;;;;;;3.53;80.58;100163.29;1809766;77;21022;-81
2022/11/17 01:11:50;;;;;;;6.20;5.60;;;;;;;3.54;80.50;100172.67;1809751;78;21041;-81
2022/11/17 01:14:36;;;;;;;7.20;5.75;;;;;;;3.56;80.56;100181.62;1809380;77;21039;-81
2022/11/17 01:17:20;;;;;;;6.28;5.60;;;;;;;3.57;80.58;100175.66;1804507;77;21053;-81
2022/11/17 01:20:07;;;;;;;6.92;5.65;;;;;;;3.56;80.50;100173.53;1809792;77;21354;-82
2022/11/17 01:22:55;;;;;;;6.30;5.67;;;;;;;3.54;80.52;100173.09;1808743;77;21064;-81
2022/11/17 01:25:40;;;;;;;5.90;5.30;;;;;;;3.54;80.48;100170.53;1808196;77;21084;-82
2022/11/17 01:28:24;;;;;;;6.85;6.10;;;;;;;3.58;80.54;100177.38;1807243;77;21012;-81
2022/11/17 01:31:23;;;;;;;6.17;5.58;;;;;;;3.56;80.35;100174.81;1809204;77;21002;-81
2022/11/17 01:34:08;;;;;;;6.37;5.78;;;;;;;3.57;80.47;100179.50;1809285;77;21454;-82
2022/11/17 01:39:56;;;;;;;5.87;5.37;;;;;;;3.55;80.29;100164.16;1739968;80;21027;-82
2022/11/17 01:42:41;;;;;;;6.60;5.95;;;;;;;3.54;80.40;100154.77;1735473;80;21289;-81
2022/11/17 01:45:26;;;;;;;7.08;6.37;;;;;;;3.55;80.31;100165.85;1734682;80;21058;-81
2022/11/17 01:48:14;;;;;;;6.92;5.70;;;;;;;3.54;80.39;100159.89;1733542;80;21038;-81
2022/11/17 01:51:00;;;;;;;7.28;5.85;;;;;;;3.54;80.33;100167.98;1730275;82;21006;-81
2022/11/17 01:53:49;;;;;;;6.92;5.62;;;;;;;3.55;80.40;100161.59;1732345;78;21644;-81
2022/11/17 01:56:38;;;;;;;7.17;5.60;;;;;;;3.55;80.36;100162.02;1729190;80;21077;-81
2022/11/17 01:59:32;;;;;;;8.08;6.83;;;;;;;3.54;80.32;100158.61;1737433;80;21050;-82
2022/11/17 02:02:18;;;;;;;10.95;5.72;;;;;;;3.51;80.19;100157.73;1732241;81;21077;-81
2022/11/17 02:05:18;;;;;;;6.25;5.65;;;;;;;3.51;80.33;100152.20;1721083;80;21592;-81
2022/11/17 02:08:05;;;;;;;6.45;5.85;;;;;;;3.50;80.21;100151.77;1710206;81;21113;-81
2022/11/17 02:10:52;;;;;;;6.47;5.80;;;;;;;3.47;80.26;100147.92;1722223;81;21034;-82
2022/11/17 02:13:39;;;;;;;6.95;5.95;;;;;;;3.49;80.26;100156.45;1722007;81;21074;-81
2022/11/17 02:16:24;;;;;;;6.12;5.60;;;;;;;3.50;80.25;100155.61;1723058;81;21055;-81
2022/11/17 02:19:13;;;;;;;6.28;5.70;;;;;;;3.48;80.13;100155.16;1725332;81;21114;-81
2022/11/17 02:22:24;;;;;;;6.83;6.22;;;;;;;3.43;80.07;100150.03;1721621;81;21316;-82
2022/11/17 02:25:36;;;;;;;5.90;5.40;;;;;;;3.42;80.13;100143.63;1720851;81;21007;-81
2022/11/17 02:28:29;;;;;;;6.58;5.78;;;;;;;3.44;80.16;100152.16;1722707;81;22267;-81
2022/11/17 02:31:32;;;;;;;6.87;6.17;;;;;;;3.42;80.12;100140.66;1724543;81;22166;-81
2022/11/17 02:34:37;;;;;;;6.60;6.00;;;;;;;3.39;80.04;100139.36;1723476;81;21059;-81
2022/11/17 02:37:33;;;;;;;10.20;5.58;;;;;;;3.37;79.96;100137.64;1724208;81;21570;-81
2022/11/17 02:40:35;;;;;;;6.47;5.87;;;;;;;3.37;80.03;100135.09;1721675;82;21593;-81
2022/11/17 02:46:49;;;;;;;6.87;6.17;;;;;;;3.39;80.12;100141.06;1724127;81;21861;-81
2022/11/17 02:49:38;;;;;;;7.00;6.08;;;;;;;3.38;80.04;100141.91;1724091;82;21382;-81
2022/11/17 02:52:24;;;;;;;6.45;5.85;;;;;;;3.40;80.08;100143.62;1723715;81;21116;-81
2022/11/17 02:55:10;;;;;;;;;;;;;;;3.37;79.84;100138.50;1697153;81;21014;-81
2022/11/17 02:57:55;;;;;;;7.05;6.42;;;;;;;3.35;79.70;100138.05;1723612;81;20184;-82
2022/11/17 03:01:01;;;;;;;7.28;5.85;;;;;;;3.35;80.01;100136.78;1724805;80;21808;-81
2022/11/17 03:04:18;;;;;;;6.53;5.92;;;;;;;3.35;79.97;100140.19;1728892;80;21083;-82
2022/11/17 03:07:20;;;;;;;6.05;5.50;;;;;;;3.31;79.93;100138.03;1725844;81;21002;-81
2022/11/17 03:10:19;;;;;;;6.80;6.10;;;;;;;3.30;79.85;100126.11;1736086;80;21494;-81
2022/11/17 03:13:19;;;;;;;7.03;6.37;;;;;;;3.27;79.71;100132.48;1736783;80;21030;-81
2022/11/17 03:16:24;;;;;;;7.00;6.30;;;;;;;3.26;79.79;100127.36;1735760;81;21022;-81
2022/11/17 03:19:19;;;;;;;7.05;6.42;;;;;;;3.24;79.77;100136.29;1736704;81;21021;-81
2022/11/17 03:22:26;;;;;;;6.35;5.75;;;;;;;3.25;79.80;100134.59;1733988;80;21070;-81
2022/11/17 03:25:15;;;;;;;7.65;6.83;;;;;;;3.23;79.61;100152.89;1734389;80;21046;-80
2022/11/17 03:28:04;;;;;;;7.35;6.62;;;;;;;3.19;79.61;100123.91;1736760;79;21082;-81
2022/11/17 03:30:51;;;;;;;7.40;6.10;;;;;;;3.19;79.69;100126.89;1734021;80;21046;-81
2022/11/17 03:33:39;;;;;;;7.03;6.42;;;;;;;3.17;79.74;100132.41;1733223;81;21046;-81
2022/11/17 03:36:30;;;;;;;7.40;6.70;;;;;;;3.18;79.71;100131.14;1734690;81;21073;-81
2022/11/17 03:39:31;;;;;;;6.70;5.72;;;;;;;3.18;79.76;100136.25;1735356;81;21073;-81
2022/11/17 03:42:23;;;;;;;7.33;6.62;;;;;;;3.17;79.69;100133.27;1736972;80;21348;-81
2022/11/17 03:45:30;;;;;;;6.80;6.20;;;;;;;3.19;79.60;100137.96;1727880;80;21052;-81
2022/11/17 03:48:24;;;;;;;6.80;6.10;;;;;;;3.15;79.65;100140.48;1692680;82;21105;-82
2022/11/17 03:51:17;;;;;;;6.40;5.87;;;;;;;3.14;79.65;100137.08;1673442;84;21007;-81
2022/11/17 03:54:02;;;;;;;8.00;6.85;;;;;;;3.14;79.60;100139.63;1680348;83;21687;-81
2022/11/17 03:57:13;;;;;;;7.60;6.90;;;;;;;3.14;79.56;100140.91;1671297;84;21015;-81
2022/11/17 04:00:08;;;;;;;8.08;7.28;;;;;;;3.12;79.52;100137.48;1649597;84;21042;-82
2022/11/17 04:02:57;;;;;;;7.22;6.53;;;;;;;3.11;79.62;100131.98;1664784;84;21105;-81
2022/11/17 04:05:42;;;;;;;7.87;7.20;;;;;;;3.10;79.50;100140.48;1671504;84;21034;-81
2022/11/17 04:08:29;;;;;;;8.23;6.80;;;;;;;3.10;79.51;100139.21;1679042;83;21023;-81
2022/11/17 04:17:20;;;;;;;7.58;6.78;;;;;;;3.04;79.47;100134.06;1667737;82;21069;-82
2022/11/17 04:20:08;;;;;;;6.95;6.30;;;;;;;3.02;79.46;100128.51;1669693;84;21713;-82
2022/11/17 04:23:07;;;;;;;7.45;6.75;;;;;;;3.03;79.51;100131.08;1669294;85;20932;-82
2022/11/17 04:28:59;;;;;;;8.60;7.80;;;;;;;3.02;79.26;100140.86;1670014;83;21330;-81
2022/11/17 04:31:44;;;;;;;8.08;7.37;;;;;;;2.97;79.32;100131.03;1671677;83;21834;-82
2022/11/17 04:34:29;;;;;;;7.47;6.87;;;;;;;2.95;79.23;100132.30;1665772;84;21614;-82
2022/11/17 04:37:16;;;;;;;8.15;7.45;;;;;;;2.93;79.33;100128.02;1670925;84;21001;-82
2022/11/17 04:40:02;;;;;;;7.92;7.22;;;;;;;2.94;79.34;100132.28;1670599;83;21460;-82
2022/11/17 04:42:47;;;;;;;6.87;6.28;;;;;;;2.91;79.27;100134.39;1672642;84;22399;-82
2022/11/17 04:45:34;;;;;;;7.80;7.10;;;;;;;2.90;79.29;100137.80;1670443;84;21069;-81
2022/11/17 04:48:19;;;;;;;7.00;6.40;;;;;;;2.89;79.32;100132.67;1637459;85;21146;-81
2022/11/17 04:51:04;;;;;;;8.18;7.37;;;;;;;2.89;79.33;100131.39;1661958;84;21518;-81
2022/11/17 04:53:50;;;;;;;8.60;7.25;;;;;;;2.85;79.12;100135.63;1668057;82;21061;-81
2022/11/17 04:56:36;;;;;;;7.75;7.05;;;;;;;2.84;79.18;100134.34;1669784;85;21109;-81
2022/11/17 04:59:21;;;;;;;7.83;7.12;;;;;;;2.82;79.23;100131.77;1671726;83;21589;-82
2022/11/17 05:02:06;;;;;;;10.07;7.37;;;;;;;2.73;79.19;100114.25;1668055;83;21038;-78
2022/11/17 05:04:57;;;;;;;7.87;7.17;;;;;;;2.83;79.20;100132.63;1672084;84;21121;-76
2022/11/17 05:07:42;;;;;;;7.85;7.17;;;;;;;2.81;79.16;100131.77;1667018;84;21085;-75
2022/11/17 05:13:31;;;;;;;8.20;7.47;;;;;;;2.77;79.14;100136.41;1668247;85;21617;-75
2022/11/17 05:19:24;;;;;;;8.70;7.90;;;;;;;2.77;79.07;100130.03;1668938;84;21101;-75
2022/11/17 05:25:15;;;;;;;8.85;8.05;;;;;;;2.74;79.03;100142.34;1670670;84;21811;-75
2022/11/17 05:28:00;;;;;;;8.60;7.80;;;;;;;2.73;79.09;100141.05;1637355;85;21130;-75
2022/11/17 05:30:46;;;;;;;8.93;8.13;;;;;;;2.73;79.10;100142.33;1642458;85;21752;-75
2022/11/17 05:33:32;;;;;;;9.80;8.63;;;;;;;2.71;78.99;100138.49;1643188;85;21127;-75
2022/11/17 05:36:18;;;;;;;10.45;8.25;;;;;;;2.69;79.04;100144.00;1643225;85;21114;-76
2022/11/17 05:39:03;;;;;;;8.73;7.93;;;;;;;2.69;79.07;100145.70;1677538;83;21137;-75
2022/11/17 05:41:48;;;;;;;11.38;9.90;;;;;;;2.66;78.98;100143.56;1643001;85;21138;-76
2022/11/17 05:44:33;;;;;;;7.97;7.28;;;;;;;2.68;79.11;100138.89;1643125;85;21124;-75
2022/11/17 05:47:18;;;;;;;9.13;8.23;;;;;;;2.68;79.05;100138.89;1670774;83;21806;-75
2022/11/17 05:50:04;;;;;;;9.75;8.50;;;;;;;2.65;79.01;100138.02;1671252;82;21066;-77
2022/11/17 05:52:49;;;;;;;8.77;7.93;;;;;;;2.62;79.00;100136.72;1669373;82;21587;-76
2022/11/17 05:55:34;;;;;;;8.80;7.10;;;;;;;2.62;79.05;100130.34;1631687;85;21059;-76
2022/11/17 05:58:26;;;;;;;10.15;8.85;;;;;;;2.63;79.10;100134.59;1639675;85;21338;-76
2022/11/17 06:01:15;;;;;;;9.00;8.20;;;;;;;2.65;79.02;100137.16;1668083;83;21098;-76
2022/11/17 06:04:02;;;;;;;8.75;7.85;;;;;;;2.65;79.05;100129.09;1668981;84;21607;-76
2022/11/17 06:06:47;;;;;;;8.18;7.37;;;;;;;2.66;79.08;100141.00;1668843;84;21532;-77
2022/11/17 06:09:36;;;;;;;8.28;7.55;;;;;;;2.65;79.07;100138.44;1670107;82;22454;-76
2022/11/17 06:12:21;;;;;;;8.35;7.65;;;;;;;2.70;79.07;100144.44;1641675;84;21622;-77
2022/11/17 06:15:07;;;;;;;9.90;8.90;;;;;;;2.71;79.03;100143.59;1642537;83;21496;-76
2022/11/17 06:17:57;;;;;;;9.40;8.50;;;;;;;2.72;79.03;100130.41;1643874;83;21135;-77
2022/11/17 06:20:47;;;;;;;9.95;8.38;;;;;;;2.72;79.02;100136.80;1668077;82;21054;-77
2022/11/17 06:23:33;;;;;;;11.97;8.68;;;;;;;2.74;79.02;100144.90;1667610;84;21570;-76
2022/11/17 06:26:18;;;;;;;9.13;8.18;;;;;;;2.74;78.95;100142.34;1669037;82;21660;-77
2022/11/17 06:29:04;;;;;;;13.58;9.45;;;;;;;2.75;78.95;100152.13;1644176;83;22011;-77
2022/11/17 06:31:49;;;;;;;14.10;9.78;;;;;;;2.75;78.97;100152.13;1669688;82;21440;-76
2022/11/17 06:34:36;;;;;;;16.12;10.35;;;;;;;2.73;78.93;100152.55;1672425;82;21070;-76
2022/11/17 06:37:21;;;;;;;12.78;10.03;;;;;;;2.74;78.98;100144.90;1670103;83;21132;-76
2022/11/17 06:40:08;;;;;;;10.48;9.38;;;;;;;2.76;79.05;100142.36;1668582;84;21050;-76
2022/11/17 06:43:02;;;;;;;9.18;8.28;;;;;;;2.78;78.98;100141.95;1673391;82;21097;-76
2022/11/17 06:45:47;;;;;;;9.28;8.45;;;;;;;2.78;78.96;100144.50;1668802;84;22234;-75
2022/11/17 06:48:34;;;;;;;9.48;8.38;;;;;;;2.77;78.98;100147.90;1642034;84;21143;-76
2022/11/17 06:51:19;;;;;;;9.40;8.30;;;;;;;2.80;78.97;100153.03;1673622;83;21030;-77
2022/11/17 06:54:07;;;;;;;9.18;7.65;;;;;;;2.79;78.92;100142.38;1671793;83;21534;-77
2022/11/17 06:56:51;;;;;;;10.18;8.65;;;;;;;2.78;78.91;100144.50;1670506;84;22268;-77
2022/11/17 06:59:36;;;;;;;10.47;9.07;;;;;;;2.81;78.98;100154.73;1670365;82;21046;-77
2022/11/17 07:02:21;;;;;;;11.00;9.88;;;;;;;2.80;78.82;100138.56;1668206;84;21502;-76
2022/11/17 07:05:07;;;;;;;9.55;8.60;;;;;;;2.79;78.87;100144.94;1672512;82;20993;-76
2022/11/17 07:07:52;;;;;;;13.05;10.85;;;;;;;2.80;78.82;100142.81;1671762;82;21630;-77
2022/11/17 07:10:37;;;;;;;10.20;9.10;;;;;;;2.80;78.92;100132.18;1625237;86;21587;-79
2022/11/17 07:13:24;;;;;;;10.00;9.00;;;;;;;2.82;78.91;100145.81;1644114;85;21662;-78
2022/11/17 07:16:16;;;;;;;9.98;8.90;;;;;;;2.81;78.75;100144.10;1644263;83;21048;-74
2022/11/17 07:19:02;;;;;;;17.10;8.90;;;;;;;2.80;78.87;100146.22;1640750;85;21091;-75
2022/11/17 07:21:47;;;;;;;;;;;;;;;2.81;78.83;100133.89;1643667;84;21135;-74
2022/11/17 07:24:31;;;;;;;11.63;9.90;;;;;;;2.80;78.72;100139.84;1665186;82;20205;-78
2022/11/17 07:27:17;;;;;;;12.40;9.85;;;;;;;2.84;78.98;100140.72;1653556;85;20991;-77
2022/11/17 07:30:05;;;;;;;10.57;9.30;;;;;;;2.90;79.04;100148.00;1625878;85;448929;-77
2022/11/17 07:32:50;;;;;;;12.82;8.83;;;;;;;2.92;78.88;100136.53;1632691;87;21648;-76
2022/11/17 07:35:36;;;;;;;9.88;8.88;;;;;;;2.91;78.91;100136.09;1635331;85;21442;-76
2022/11/17 07:38:22;;;;;;;10.08;9.00;;;;;;;2.90;78.79;100137.80;1635422;87;21095;-76
2022/11/17 07:41:09;;;;;;;10.68;9.53;;;;;;;2.92;78.96;100140.36;1609155;87;21467;-76
2022/11/17 07:43:54;;;;;;;9.83;8.53;;;;;;;2.93;78.87;100140.79;1635768;86;20964;-75
2022/11/17 07:46:39;;;;;;;9.13;8.23;;;;;;;2.93;78.79;100133.98;1635194;85;21428;-76
2022/11/17 07:49:25;;;;;;;10.28;9.28;;;;;;;2.92;78.66;100145.47;1600933;87;21495;-75
2022/11/17 07:52:10;;;;;;;12.03;9.78;;;;;;;2.89;78.74;100145.44;1633194;85;21527;-76
2022/11/17 07:54:55;;;;;;;13.32;10.70;;;;;;;2.86;78.68;100147.97;1632878;86;21498;-76
2022/11/17 07:57:40;;;;;;;11.30;9.43;;;;;;;2.83;78.68;100144.12;1636306;85;21048;-72
2022/11/17 08:00:28;;;;;;;12.15;9.78;;;;;;;2.83;78.64;100147.53;1635649;85;21083;-75
2022/11/17 08:03:13;;;;;;;15.58;11.35;;;;;;;2.85;78.70;100143.70;1635529;86;20956;-75
2022/11/17 08:06:04;;;;;;;9.38;8.48;;;;;;;2.86;78.73;100142.44;1635415;85;20932;-75
2022/11/17 08:08:49;;;;;;;8.08;7.37;;;;;;;2.84;77.92;100142.85;1638320;86;21082;-74
2022/11/17 08:11:33;;;;;;;10.40;9.40;;;;;;;2.76;78.50;100150.88;1651230;85;20940;-74
2022/11/17 08:14:18;;;;;;;10.08;9.08;;;;;;;2.75;78.53;100141.50;1649719;85;21875;-75
2022/11/17 08:17:03;;;;;;;8.73;7.83;;;;;;;2.77;78.61;100141.09;1644401;85;20972;-77
2022/11/17 08:19:49;;;;;;;8.75;8.05;;;;;;;2.81;78.60;100138.14;1642553;85;21341;-75
2022/11/17 08:22:34;;;;;;;8.18;7.37;;;;;;;2.77;78.26;100143.65;1646281;85;20963;-71
2022/11/17 08:25:22;;;;;;;9.25;8.35;;;;;;;2.75;78.49;100138.95;1644200;85;20943;-74
2022/11/17 08:28:07;;;;;;;13.78;9.65;;;;;;;2.75;78.62;100158.09;1640054;85;21520;-73
2022/11/17 08:30:52;;;;;;;10.25;9.25;;;;;;;2.75;78.51;100144.05;1643176;86;20972;-73
2022/11/17 08:33:36;;;;;;;9.78;8.18;;;;;;;2.74;78.54;100138.52;1635611;86;20943;-73
2022/11/17 08:36:21;;;;;;;8.85;7.90;;;;;;;2.72;78.40;100141.90;1641492;85;21333;-73
2022/11/17 08:39:07;;;;;;;9.90;8.90;;;;;;;2.71;78.45;100142.73;1632075;86;21410;-73
2022/11/17 08:41:51;;;;;;;9.85;6.83;;;;;;;2.70;78.46;100149.55;1640606;86;20996;-73
2022/11/17 08:44:36;;;;;;;7.67;6.97;;;;;;;2.70;78.35;100136.78;1637028;85;21400;-73
2022/11/17 08:47:21;;;;;;;8.15;7.45;;;;;;;2.70;78.27;100144.86;1639409;85;20948;-73
2022/11/17 08:50:07;;;;;;;7.53;6.83;;;;;;;2.66;78.31;100137.59;1640868;85;21026;-74
2022/11/17 08:52:52;;;;;;;7.80;7.20;;;;;;;2.66;78.38;100142.70;1639397;85;28163;-73
2022/11/17 08:55:37;;;;;;;8.37;6.70;;;;;;;2.68;78.44;100141.02;1642816;86;21436;-73
2022/11/17 08:58:22;;;;;;;6.45;5.92;;;;;;;2.67;78.25;100146.97;1645865;85;21825;-73
2022/11/17 09:01:14;;;;;;;7.87;6.87;;;;;;;2.65;78.22;100151.20;1645701;85;21448;-73
2022/11/17 09:03:59;;;;;;;6.40;5.80;;;;;;;2.66;78.22;100149.94;1624382;86;21539;-74
2022/11/17 09:06:44;;;;;;;6.65;6.03;;;;;;;2.68;78.21;100149.09;1641589;86;21073;-74
2022/11/17 09:09:32;;;;;;;7.00;6.40;;;;;;;2.69;78.03;100150.81;1649463;85;21425;-73
2022/11/17 09:12:17;;;;;;;6.50;5.90;;;;;;;2.69;78.00;100146.56;1650167;83;20983;-73
2022/11/17 09:15:03;;;;;;;7.50;6.47;;;;;;;2.73;78.14;100138.50;1644203;85;20975;-73
2022/11/17 09:17:48;;;;;;;6.97;6.25;;;;;;;2.76;78.08;100141.08;1633839;85;21020;-73
2022/11/17 09:20:33;;;;;;;6.22;5.67;;;;;;;2.78;78.06;100147.91;1639278;85;20995;-73
2022/11/17 09:23:18;;;;;;;7.03;6.00;;;;;;;2.77;78.05;100147.90;1636407;85;20988;-73
2022/11/17 09:26:10;;;;;;;6.83;6.12;;;;;;;2.76;78.11;100146.19;1639503;85;21397;-73
2022/11/17 09:28:55;;;;;;;9.10;6.08;;;;;;;2.77;78.18;100150.03;1638697;85;21809;-73
2022/11/17 09:31:40;;;;;;;6.85;6.12;;;;;;;2.80;78.06;100153.88;1650519;85;21052;-73
2022/11/17 09:34:26;;;;;;;7.05;6.37;;;;;;;2.80;77.51;100154.30;1626341;86;20925;-73
2022/11/17 09:37:10;;;;;;;7.50;6.47;;;;;;;2.75;77.62;100153.41;1635029;85;20940;-73
2022/11/17 09:39:56;;;;;;;5.45;5.00;;;;;;;2.75;77.62;100153.41;1634953;85;21086;-73
2022/11/17 09:42:41;;;;;;;11.90;6.97;;;;;;;2.75;78.04;100147.03;1644416;85;20987;-73
2022/11/17 09:45:33;;;;;;;18.10;8.55;;;;;;;2.76;78.03;100143.21;1634892;85;20971;-73
2022/11/17 09:48:23;;;;;;;10.08;6.75;;;;;;;2.78;78.04;100143.22;1613546;87;20908;-73
2022/11/17 09:51:12;;;;;;;6.25;5.65;;;;;;;2.79;77.95;100145.80;1612907;88;21520;-73
2022/11/17 09:54:22;;;;;;;15.25;7.42;;;;;;;2.77;77.95;100145.34;1644227;85;20983;-72
2022/11/17 09:57:12;;;;;;;10.95;6.87;;;;;;;2.76;77.95;100147.05;1632514;85;20972;-72
2022/11/17 10:00:14;;;;;;;6.83;5.08;;;;;;;2.79;77.87;100147.48;1643723;85;21562;-72
2022/11/17 10:03:00;;;;;;;5.72;5.10;;;;;;;2.78;77.78;100145.78;1630122;86;21515;-72
2022/11/17 10:05:46;;;;;;;5.55;5.05;;;;;;;2.78;77.88;100141.95;1648848;85;20939;-73
2022/11/17 10:09:18;;;;;;;5.80;5.25;;;;;;;2.79;77.77;100143.23;1624809;86;21456;-72
2022/11/17 10:12:20;;;;;;;6.45;5.47;;;;;;;2.79;77.88;100136.00;1592252;88;21490;-73
2022/11/17 10:15:25;;;;;;;8.78;6.40;;;;;;;2.83;77.92;100143.70;1597677;87;21834;-72
2022/11/17 10:18:15;;;;;;;8.53;5.33;;;;;;;2.86;77.98;100145.00;1588307;87;21048;-72
2022/11/17 10:21:00;;;;;;;6.08;5.47;;;;;;;2.86;77.69;100142.44;1598073;88;20954;-73
2022/11/17 10:23:53;;;;;;;5.40;4.90;;;;;;;2.88;77.82;100142.45;1591961;88;20982;-73
2022/11/17 10:26:45;;;;;;;5.50;4.67;;;;;;;2.91;77.76;100138.65;1588691;88;21038;-73
2022/11/17 10:29:30;;;;;;;5.05;4.62;;;;;;;2.91;77.61;100139.50;1595423;89;20922;-72
2022/11/17 10:32:15;;;;;;;4.70;4.30;;;;;;;2.91;77.75;100143.33;1588862;88;21446;-73
2022/11/17 10:35:16;;;;;;;6.53;4.83;;;;;;;2.95;77.73;100139.11;1592965;89;21001;-73
2022/11/17 10:38:15;;;;;;;4.92;4.53;;;;;;;2.93;77.53;100145.90;1579113;89;21325;-73
2022/11/17 10:41:02;;;;;;;5.97;5.47;;;;;;;2.92;77.22;100148.02;1575270;89;21417;-73
2022/11/17 10:44:05;;;;;;;5.25;4.85;;;;;;;2.86;77.43;100134.78;1589439;88;21558;-73
2022/11/17 10:46:58;;;;;;;4.92;4.53;;;;;;;2.91;77.43;100146.31;1589186;89;20959;-73
2022/11/17 10:49:43;;;;;;;4.90;4.50;;;;;;;2.91;77.46;100143.33;1594213;89;20962;-73
2022/11/17 10:52:28;;;;;;;4.65;4.25;;;;;;;2.92;77.28;100129.72;1600888;86;20966;-73
2022/11/17 10:55:19;;;;;;;4.08;3.77;;;;;;;2.95;77.57;100128.47;1596190;89;21541;-73
2022/11/17 10:58:21;;;;;;;4.33;3.98;;;;;;;2.97;77.41;100133.16;1593722;89;20938;-73
2022/11/17 11:01:05;;;;;;;4.85;3.85;;;;;;;2.97;77.32;100132.30;1595724;87;20959;-73
2022/11/17 11:03:50;;;;;;;3.95;3.65;;;;;;;2.99;77.04;100132.75;1593503;87;21502;-73
2022/11/17 11:06:36;;;;;;;5.75;3.40;;;;;;;2.97;77.18;100132.30;1567399;90;21095;-73
2022/11/17 11:09:22;;;;;;;4.50;4.10;;;;;;;2.96;77.03;100125.07;1569186;88;20968;-73
2022/11/17 11:12:18;;;;;;;3.92;3.55;;;;;;;2.92;77.08;100121.20;1615444;87;21030;-73
2022/11/17 11:15:05;;;;;;;4.00;3.67;;;;;;;2.89;76.66;100116.08;1646037;85;21512;-73
2022/11/17 11:17:50;;;;;;;4.45;3.80;;;;;;;2.88;76.74;100119.05;1648732;86;21417;-73
2022/11/17 11:20:46;;;;;;;4.45;3.60;;;;;;;2.83;76.74;100113.05;1650565;84;21501;-74
2022/11/17 11:23:46;;;;;;;5.30;3.70;;;;;;;2.79;76.65;100125.37;1651078;85;20932;-74
2022/11/17 11:26:57;;;;;;;3.05;2.85;;;;;;;2.79;76.66;100118.98;1651640;84;21546;-73
2022/11/17 11:30:05;;;;;;;3.62;3.22;;;;;;;2.77;76.52;100121.09;1649744;85;20964;-73
2022/11/17 11:32:58;;;;;;;5.92;3.58;;;;;;;2.74;76.53;100117.23;1650947;85;20992;-74
2022/11/17 11:36:00;;;;;;;3.52;3.08;;;;;;;2.75;76.77;100115.13;1648439;85;20955;-74
2022/11/17 11:39:16;;;;;;;3.55;3.25;;;;;;;2.79;76.88;100113.02;1650684;85;21015;-74
2022/11/17 11:42:15;;;;;;;;;;;;;;;2.83;76.92;100118.16;1653008;85;20975;-74
2022/11/17 11:45:45;;;;;;;5.72;3.20;;;;;;;2.88;76.76;100116.92;1622769;86;20319;-73
2022/11/17 11:48:32;;;;;;;7.12;4.67;;;;;;;2.91;76.80;100121.63;1649234;85;21935;-74
2022/11/17 11:51:21;;;;;;;10.28;6.62;;;;;;;2.91;76.58;100111.41;1651510;85;20943;-74
2022/11/17 11:54:21;;;;;;;6.60;4.50;;;;;;;2.92;76.72;100119.51;1623065;86;20949;-74
2022/11/17 11:57:12;;;;;;;5.67;3.98;;;;;;;2.91;76.68;100108.00;1649361;85;21339;-74
2022/11/17 12:00:04;;;;;;;3.85;3.40;;;;;;;2.94;76.61;100102.92;1650856;85;21461;-74
2022/11/17 12:03:00;;;;;;;5.15;2.85;;;;;;;2.93;76.62;100111.42;1650061;85;20928;-74
2022/11/17 12:06:59;;;;;;;4.42;3.33;;;;;;;2.90;76.35;100107.15;1648524;85;20980;-74
2022/11/17 12:09:14;;;;;;;5.17;3.20;;;;;;;2.86;76.29;100105.84;1611471;86;20948;-74
2022/11/17 12:12:00;;;;;;;3.83;3.47;;;;;;;2.81;76.05;100107.09;1649234;85;20987;-74
2022/11/17 12:15:12;;;;;;;3.52;3.25;;;;;;;2.80;76.31;100118.14;1650146;85;21007;-73
2022/11/17 12:18:22;;;;;;;3.30;2.92;;;;;;;2.81;76.00;100118.58;1632442;85;20975;-74
2022/11/17 12:21:15;;;;;;;3.92;3.62;;;;;;;2.78;75.98;100093.02;1684239;83;21386;-74
2022/11/17 12:24:16;;;;;;;3.02;2.83;;;;;;;2.75;76.16;100094.70;1683356;83;21758;-73
2022/11/17 12:27:34;;;;;;;3.62;3.27;;;;;;;2.75;76.28;100090.87;1684484;83;20934;-74
2022/11/17 12:30:45;;;;;;;4.15;3.75;;;;;;;2.77;76.22;100088.76;1684353;84;20917;-74
2022/11/17 12:33:55;;;;;;;3.87;3.35;;;;;;;2.78;76.09;100080.25;1684282;83;20914;-74
2022/11/17 12:36:40;;;;;;;4.10;3.70;;;;;;;2.78;76.28;100089.61;1685017;83;21782;-74
2022/11/17 12:39:58;;;;;;;5.22;3.90;;;;;;;2.81;76.35;100092.19;1684793;82;21505;-74
2022/11/17 12:43:04;;;;;;;4.75;4.33;;;;;;;2.86;76.42;100091.80;1684091;83;20948;-74
2022/11/17 12:46:00;;;;;;;5.62;4.37;;;;;;;2.88;75.99;100105.01;1684174;83;20949;-75
2022/11/17 12:49:09;;;;;;;4.62;4.22;;;;;;;2.85;76.20;100093.50;1684710;83;21378;-75
2022/11/17 12:51:59;;;;;;;5.92;3.70;;;;;;;2.84;76.06;100098.59;1684293;83;21009;-74
2022/11/17 12:55:13;;;;;;;4.83;4.17;;;;;;;2.82;76.11;100098.58;1683828;83;21395;-75
2022/11/17 12:58:06;;;;;;;3.80;3.40;;;;;;;2.83;75.83;100091.78;1684577;83;20902;-74
2022/11/17 13:01:18;;;;;;;3.98;3.67;;;;;;;2.79;75.93;100085.80;1681650;83;20973;-74
2022/11/17 13:04:24;;;;;;;4.53;4.12;;;;;;;2.79;76.08;100076.01;1684305;83;20961;-74
2022/11/17 13:07:19;;;;;;;4.20;3.60;;;;;;;2.76;75.33;100097.27;1684059;83;20965;-74
2022/11/17 13:10:05;;;;;;;4.75;3.77;;;;;;;2.70;75.71;100103.59;1683879;83;21495;-74
2022/11/17 13:12:50;;;;;;;4.53;4.13;;;;;;;2.69;75.98;100086.99;1683880;83;21033;-74
2022/11/17 13:15:35;;;;;;;3.85;3.35;;;;;;;2.70;75.43;100091.25;1672228;83;21023;-74
2022/11/17 13:18:34;;;;;;;3.95;3.65;;;;;;;2.67;75.55;100090.81;1684777;83;20938;-74
2022/11/17 13:21:31;;;;;;;4.45;4.05;;;;;;;2.63;75.71;100079.72;1683578;83;20914;-73
2022/11/17 13:24:33;;;;;;;4.87;3.98;;;;;;;2.59;75.65;100078.02;1684170;83;21414;-74
2022/11/17 13:27:29;;;;;;;4.53;4.05;;;;;;;2.59;75.60;100079.30;1684083;83;21489;-74
2022/11/17 13:30:27;;;;;;;4.92;4.42;;;;;;;2.58;75.63;100073.77;1684977;83;20901;-74
2022/11/17 13:33:15;;;;;;;6.60;4.80;;;;;;;2.58;75.42;100077.59;1684015;84;21292;-74
2022/11/17 13:36:16;;;;;;;4.87;4.35;;;;;;;2.54;75.59;100082.66;1686073;83;21029;-73
2022/11/17 13:39:02;;;;;;;5.87;5.25;;;;;;;2.50;75.52;100075.40;1682654;83;21025;-74
2022/11/17 13:41:47;;;;;;;5.70;5.10;;;;;;;2.48;75.66;100077.50;1682886;83;20934;-74
2022/11/17 13:44:34;;;;;;;6.33;4.78;;;;;;;2.46;75.73;100072.39;1682366;83;20949;-74
2022/11/17 13:47:22;;;;;;;5.53;5.03;;;;;;;2.49;75.71;100073.69;1676053;83;20945;-74
2022/11/17 13:50:31;;;;;;;5.42;4.92;;;;;;;2.48;75.63;100064.33;1682938;83;20927;-74
2022/11/17 13:53:25;;;;;;;5.60;5.10;;;;;;;2.45;75.49;100073.23;1683662;83;20949;-73
2022/11/17 13:56:47;;;;;;;5.35;4.85;;;;;;;2.43;75.61;100072.36;1683429;83;21097;-74
2022/11/17 13:59:37;;;;;;;6.12;5.40;;;;;;;2.42;75.45;100073.63;1681147;83;21568;-74